Time;durP1;ratioP1;P1;durP2;ratioP2;P2;SDS_P1;SDS_P2;PMS_P1;PMS_P2;Temp;Humidity;BMP_temperature;BMP_pressure;BME280_temperature;BME280_humidity;BME280_pressure;Samples;Min_cycle;Max_cycle;Signal;HPM_P1;HPM_P2
2023/07/19 00:00:53;;;;;;;7.03;5.78;;;;;;;;;;2573737;23;20028;-93
2023/07/19 00:01:53;;;;;;;7.78;6.03;;;;;;;;;;2556047;23;20021;-93
2023/07/19 00:02:54;;;;;;;7.15;5.22;;;;;;;;;;2543889;23;19998;-93
2023/07/19 00:03:54;;;;;;;6.50;5.90;;;;;;;;;;2556675;23;20060;-93
2023/07/19 00:04:54;;;;;;;10.13;5.95;;;;;;;;;;2556110;23;20001;-93
2023/07/19 00:05:55;;;;;;;9.85;6.80;;;;;;;;;;2544158;23;20088;-91
2023/07/19 00:06:57;;;;;;;12.60;6.63;;;;;;;;;;2544199;23;20076;-93
2023/07/19 00:07:58;;;;;;;8.57;7.07;;;;;;;;;;2543589;23;20336;-93
2023/07/19 00:08:58;;;;;;;7.95;7.00;;;;;;;;;;2555970;23;20004;-92
2023/07/19 00:09:59;;;;;;;10.73;6.45;;;;;;;;;;2556081;23;20005;-92
2023/07/19 00:10:59;;;;;;;9.27;7.85;;;;;;;;;;2560410;23;20001;-93
2023/07/19 00:12:00;;;;;;;7.75;6.22;;;;;;;;;;2556218;23;20027;-92
2023/07/19 00:13:00;;;;;;;9.98;6.50;;;;;;;;;;2556345;23;20457;-92
2023/07/19 00:14:05;;;;;;;12.35;7.38;;;;;;;;;;2568480;23;19997;-91
2023/07/19 00:15:06;;;;;;;7.18;5.95;;;;;;;;;;2572719;23;20003;-92
2023/07/19 00:16:07;;;;;;;7.97;6.60;;;;;;;;;;2573488;23;19997;-92
2023/07/19 00:17:08;;;;;;;10.48;6.85;;;;;;;;;;2573295;23;20493;-93
2023/07/19 00:18:08;;;;;;;9.48;6.55;;;;;;;;;;2573573;23;20363;-93
2023/07/19 00:19:09;;;;;;;9.52;6.95;;;;;;;;;;2556137;23;20005;-92
2023/07/19 00:20:11;;;;;;;9.10;6.97;;;;;;;;;;2544360;23;20088;-92
2023/07/19 00:21:14;;;;;;;12.75;6.53;;;;;;;;;;2562343;23;20043;-92
2023/07/19 00:22:14;;;;;;;8.77;6.90;;;;;;;;;;2557744;23;19997;-92
2023/07/19 00:23:15;;;;;;;9.45;6.75;;;;;;;;;;2562053;23;20063;-92
2023/07/19 00:24:16;;;;;;;8.02;6.60;;;;;;;;;;2574619;23;20040;-92
2023/07/19 00:25:17;;;;;;;10.23;6.63;;;;;;;;;;2574993;23;20427;-92
2023/07/19 00:26:17;;;;;;;8.75;6.93;;;;;;;;;;2557925;23;19993;-92
2023/07/19 00:27:18;;;;;;;6.93;6.22;;;;;;;;;;2557032;23;20131;-92
2023/07/19 00:28:18;;;;;;;9.23;6.45;;;;;;;;;;2556763;23;20005;-92
2023/07/19 00:29:19;;;;;;;8.65;6.63;;;;;;;;;;2544170;23;19997;-92
2023/07/19 00:30:20;;;;;;;8.68;6.82;;;;;;;;;;2556531;23;20025;-92
2023/07/19 00:31:20;;;;;;;8.35;7.10;;;;;;;;;;2556974;23;20470;-93
2023/07/19 00:32:21;;;;;;;8.85;6.63;;;;;;;;;;2555857;23;19997;-93
2023/07/19 00:33:22;;;;;;;7.90;7.05;;;;;;;;;;2544624;23;19997;-92
2023/07/19 00:34:22;;;;;;;10.52;7.32;;;;;;;;;;2544242;23;20038;-92
2023/07/19 00:35:22;;;;;;;9.73;7.13;;;;;;;;;;2561116;23;20000;-92
2023/07/19 00:36:23;;;;;;;9.27;7.28;;;;;;;;;;2556809;23;20072;-92
2023/07/19 00:37:23;;;;;;;8.43;6.78;;;;;;;;;;2544398;23;19997;-93
2023/07/19 00:38:24;;;;;;;8.23;7.03;;;;;;;;;;2544398;23;20055;-92
2023/07/19 00:39:27;;;;;;;7.93;6.63;;;;;;;;;;2556774;23;20076;-92
2023/07/19 00:40:31;;;;;;;11.63;7.13;;;;;;;;;;2573430;23;20365;-92
2023/07/19 00:41:32;;;;;;;9.55;7.50;;;;;;;;;;2556833;23;20004;-93
2023/07/19 00:42:35;;;;;;;8.15;6.97;;;;;;;;;;2560919;23;20346;-92
2023/07/19 00:43:36;;;;;;;10.95;7.55;;;;;;;;;;2556956;23;19993;-93
2023/07/19 00:44:36;;;;;;;11.30;9.05;;;;;;;;;;2561390;23;20047;-91
2023/07/19 00:45:44;;;;;;;9.40;8.38;;;;;;;;;;2574743;23;20372;-91
2023/07/19 00:46:45;;;;;;;10.38;9.13;;;;;;;;;;2569454;23;19996;-91
2023/07/19 00:47:46;;;;;;;9.60;8.60;;;;;;;;;;2557036;23;20001;-92
2023/07/19 00:48:47;;;;;;;12.63;9.43;;;;;;;;;;2561008;23;20004;-93
2023/07/19 00:49:47;;;;;;;12.02;8.85;;;;;;;;;;2556709;23;20017;-92
2023/07/19 00:50:50;;;;;;;11.10;8.85;;;;;;;;;;2544355;23;19997;-92
2023/07/19 00:51:50;;;;;;;13.98;9.68;;;;;;;;;;2561076;23;19997;-93
2023/07/19 00:52:52;;;;;;;10.57;8.70;;;;;;;;;;2556681;23;20450;-92
2023/07/19 00:53:54;;;;;;;12.43;8.13;;;;;;;;;;2557516;23;20558;-89
2023/07/19 00:54:57;;;;;;;9.52;8.18;;;;;;;;;;2556808;23;20004;-92
2023/07/19 00:56:01;;;;;;;10.68;9.38;;;;;;;;;;2122447;23;10000980;-92
2023/07/19 00:57:03;;;;;;;13.35;10.13;;;;;;;;;;2545049;23;20005;-93
2023/07/19 00:58:03;;;;;;;12.20;9.30;;;;;;;;;;2557165;23;20050;-92
2023/07/19 00:59:04;;;;;;;11.35;9.30;;;;;;;;;;2573622;23;19996;-92
2023/07/19 01:00:06;;;;;;;10.45;7.95;;;;;;;;;;2574238;23;20096;-93
2023/07/19 01:01:07;;;;;;;9.35;8.05;;;;;;;;;;2556610;23;20111;-92
2023/07/19 01:02:30;;;;;;;9.75;7.47;;;;;;;;;;2561126;23;19997;-92
2023/07/19 01:03:50;;;;;;;13.68;7.97;;;;;;;;;;2564954;23;20342;-93
2023/07/19 01:04:50;;;;;;;9.95;7.72;;;;;;;;;;2572162;23;20096;-92
2023/07/19 01:05:51;;;;;;;8.40;6.88;;;;;;;;;;2556841;23;20046;-92
2023/07/19 01:06:52;;;;;;;9.90;7.63;;;;;;;;;;2561006;23;20388;-92
2023/07/19 01:07:53;;;;;;;8.40;7.18;;;;;;;;;;2574043;23;20074;-92
2023/07/19 01:08:54;;;;;;;10.07;7.18;;;;;;;;;;2573946;23;20039;-92
2023/07/19 01:09:54;;;;;;;10.63;8.30;;;;;;;;;;2556618;23;19993;-93
2023/07/19 01:11:03;;;;;;;10.18;8.13;;;;;;;;;;2560801;23;20001;-92
2023/07/19 01:12:05;;;;;;;9.30;8.15;;;;;;;;;;2557006;23;19997;-93
2023/07/19 01:13:10;;;;;;;12.23;8.77;;;;;;;;;;2556844;23;20414;-92
2023/07/19 01:14:12;;;;;;;11.77;8.63;;;;;;;;;;2556553;23;20401;-92
2023/07/19 01:15:12;;;;;;;9.85;8.30;;;;;;;;;;2544454;23;20016;-92
2023/07/19 01:16:12;;;;;;;11.98;8.68;;;;;;;;;;2544383;23;20001;-92
2023/07/19 01:17:13;;;;;;;11.35;8.63;;;;;;;;;;2561102;23;20025;-92
2023/07/19 01:18:13;;;;;;;12.35;9.25;;;;;;;;;;2556686;23;20009;-92
2023/07/19 01:19:15;;;;;;;12.40;9.00;;;;;;;;;;2557254;23;20028;-91
2023/07/19 01:20:16;;;;;;;11.35;8.02;;;;;;;;;;2557821;23;20056;-93
2023/07/19 01:21:16;;;;;;;11.45;8.95;;;;;;;;;;2561057;23;20016;-92
2023/07/19 01:22:17;;;;;;;13.82;9.10;;;;;;;;;;2556736;23;20472;-92
2023/07/19 01:23:18;;;;;;;10.95;9.07;;;;;;;;;;2544474;23;20370;-91
2023/07/19 01:24:18;;;;;;;13.02;10.07;;;;;;;;;;2556525;23;19997;-92
2023/07/19 01:25:19;;;;;;;11.93;9.20;;;;;;;;;;2556701;23;20004;-91
2023/07/19 01:26:19;;;;;;;14.00;9.35;;;;;;;;;;2544200;23;20080;-93
2023/07/19 01:27:20;;;;;;;10.73;8.93;;;;;;;;;;2544169;23;19997;-91
2023/07/19 01:28:20;;;;;;;11.20;9.32;;;;;;;;;;2544526;23;20160;-92
2023/07/19 01:29:21;;;;;;;13.15;8.70;;;;;;;;;;2556638;23;19997;-92
2023/07/19 01:30:21;;;;;;;12.52;9.05;;;;;;;;;;2569124;23;19993;-92
2023/07/19 01:31:22;;;;;;;11.27;8.90;;;;;;;;;;2555907;23;20309;-92
2023/07/19 01:32:22;;;;;;;10.32;8.13;;;;;;;;;;2544205;23;20085;-92
2023/07/19 01:33:23;;;;;;;10.82;8.38;;;;;;;;;;2556652;23;20003;-92
2023/07/19 01:34:24;;;;;;;10.18;8.32;;;;;;;;;;2573103;23;19992;-92
2023/07/19 01:35:24;;;;;;;11.48;8.27;;;;;;;;;;2556475;23;20024;-92
2023/07/19 01:36:26;;;;;;;16.67;8.20;;;;;;;;;;2544406;23;19993;-91
2023/07/19 01:37:29;;;;;;;12.73;7.95;;;;;;;;;;2544321;23;19993;-92
2023/07/19 01:38:29;;;;;;;13.95;8.23;;;;;;;;;;2561239;23;19993;-92
2023/07/19 01:39:30;;;;;;;11.77;8.23;;;;;;;;;;2574147;23;20442;-91
2023/07/19 01:40:30;;;;;;;11.75;8.43;;;;;;;;;;2556675;23;20041;-92
2023/07/19 01:41:31;;;;;;;10.32;8.77;;;;;;;;;;2560689;23;19993;-91
2023/07/19 01:42:31;;;;;;;11.85;9.05;;;;;;;;;;2574553;23;20019;-90
2023/07/19 01:43:32;;;;;;;13.48;9.52;;;;;;;;;;2574028;23;20078;-91
2023/07/19 01:44:33;;;;;;;15.70;11.75;;;;;;;;;;2569086;23;19992;-91
2023/07/19 01:45:33;;;;;;;17.92;12.80;;;;;;;;;;2573296;23;19993;-92
2023/07/19 01:46:35;;;;;;;14.65;12.20;;;;;;;;;;2556518;23;20076;-92
2023/07/19 01:47:38;;;;;;;14.98;12.45;;;;;;;;;;2544282;23;20077;-92
2023/07/19 01:48:38;;;;;;;15.27;13.30;;;;;;;;;;2561250;23;19993;-92
2023/07/19 01:49:40;;;;;;;16.10;12.35;;;;;;;;;;2574231;23;20438;-91
2023/07/19 01:50:40;;;;;;;14.27;12.07;;;;;;;;;;2568966;23;19992;-91
2023/07/19 01:51:41;;;;;;;16.50;12.38;;;;;;;;;;2573349;23;20417;-92
2023/07/19 01:52:41;;;;;;;16.10;13.13;;;;;;;;;;2556969;23;20063;-91
2023/07/19 01:53:42;;;;;;;17.95;12.80;;;;;;;;;;2544448;23;20001;-91
2023/07/19 01:54:42;;;;;;;15.40;12.48;;;;;;;;;;2557319;23;20089;-91
2023/07/19 01:55:43;;;;;;;14.18;11.98;;;;;;;;;;2573284;23;20004;-91
2023/07/19 01:56:43;;;;;;;14.10;11.85;;;;;;;;;;2556776;23;20001;-91
2023/07/19 01:57:44;;;;;;;12.98;11.38;;;;;;;;;;2560488;23;19993;-92
2023/07/19 01:58:45;;;;;;;15.30;11.23;;;;;;;;;;2556482;23;20172;-90
2023/07/19 01:59:45;;;;;;;15.13;11.60;;;;;;;;;;2559058;23;19997;-91
2023/07/19 02:00:45;;;;;;;15.18;11.82;;;;;;;;;;2558414;23;20008;-92
2023/07/19 02:01:46;;;;;;;14.65;11.52;;;;;;;;;;2547854;23;20048;-92
2023/07/19 02:02:46;;;;;;;16.60;12.65;;;;;;;;;;2556466;23;20116;-92
2023/07/19 02:03:47;;;;;;;14.52;11.93;;;;;;;;;;2560828;23;19996;-92
2023/07/19 02:04:48;;;;;;;16.85;12.48;;;;;;;;;;2556360;23;20044;-92
2023/07/19 02:06:00;;;;;;;14.93;12.38;;;;;;;;;;2556257;23;20370;-92
2023/07/19 02:07:01;;;;;;;13.68;12.27;;;;;;;;;;2566587;23;20465;-93
2023/07/19 02:08:03;;;;;;;14.45;11.77;;;;;;;;;;2544324;23;20053;-93
2023/07/19 02:09:03;;;;;;;13.90;12.02;;;;;;;;;;2544123;23;20045;-93
2023/07/19 02:10:04;;;;;;;14.02;12.40;;;;;;;;;;2544025;23;20178;-92
2023/07/19 02:11:05;;;;;;;15.25;12.48;;;;;;;;;;2544075;23;19993;-92
2023/07/19 02:12:06;;;;;;;14.40;12.75;;;;;;;;;;2556611;23;20000;-93
2023/07/19 02:13:06;;;;;;;13.05;11.73;;;;;;;;;;2543941;23;20347;-92
2023/07/19 02:14:07;;;;;;;14.50;12.50;;;;;;;;;;2560770;23;20058;-92
2023/07/19 02:15:08;;;;;;;15.23;12.93;;;;;;;;;;2573874;23;19997;-92
2023/07/19 02:16:09;;;;;;;16.35;12.43;;;;;;;;;;2556165;23;19997;-92
2023/07/19 02:17:10;;;;;;;15.48;12.07;;;;;;;;;;2546597;23;20088;-91
2023/07/19 02:18:10;;;;;;;16.17;11.98;;;;;;;;;;2563559;23;19989;-91
2023/07/19 02:19:14;;;;;;;16.42;12.43;;;;;;;;;;2576731;23;20003;-91
2023/07/19 02:20:19;;;;;;;15.13;12.07;;;;;;;;;;2558958;23;20029;-92
2023/07/19 02:21:19;;;;;;;16.73;11.73;;;;;;;;;;2561202;23;20391;-92
2023/07/19 02:22:20;;;;;;;16.65;12.35;;;;;;;;;;2558094;23;20020;-91
2023/07/19 02:23:21;;;;;;;14.25;12.70;;;;;;;;;;2560652;23;19997;-92
2023/07/19 02:24:21;;;;;;;16.88;12.43;;;;;;;;;;2568766;23;20154;-92
2023/07/19 02:25:22;;;;;;;15.95;12.23;;;;;;;;;;2573144;23;19996;-91
2023/07/19 02:26:23;;;;;;;15.82;12.63;;;;;;;;;;2568735;23;19988;-91
2023/07/19 02:27:23;;;;;;;16.05;12.35;;;;;;;;;;2556334;23;20037;-92
2023/07/19 02:28:24;;;;;;;13.52;11.60;;;;;;;;;;2560690;23;20472;-92
2023/07/19 02:29:25;;;;;;;16.23;11.45;;;;;;;;;;2568822;23;20433;-90
2023/07/19 02:30:25;;;;;;;14.70;11.38;;;;;;;;;;2557119;23;19997;-92
2023/07/19 02:31:26;;;;;;;15.43;11.80;;;;;;;;;;2544089;23;20042;-92
2023/07/19 02:32:26;;;;;;;15.10;11.45;;;;;;;;;;2560647;23;20164;-91
2023/07/19 02:33:27;;;;;;;17.27;12.35;;;;;;;;;;2573624;23;20063;-92
2023/07/19 02:34:27;;;;;;;17.45;12.07;;;;;;;;;;2573816;23;20000;-92
2023/07/19 02:35:28;;;;;;;16.95;11.85;;;;;;;;;;2556637;23;20399;-91
2023/07/19 02:36:28;;;;;;;14.02;11.65;;;;;;;;;;2544334;23;20049;-91
2023/07/19 02:37:28;;;;;;;16.88;13.18;;;;;;;;;;2544452;23;20048;-91
2023/07/19 02:38:29;;;;;;;13.80;12.10;;;;;;;;;;2559584;23;20091;-91
2023/07/19 02:39:30;;;;;;;16.08;11.65;;;;;;;;;;2562812;23;20367;-92
2023/07/19 02:40:30;;;;;;;16.90;12.57;;;;;;;;;;2566880;23;19996;-92
2023/07/19 02:41:31;;;;;;;16.08;11.95;;;;;;;;;;2565038;23;19997;-91
2023/07/19 02:42:32;;;;;;;15.32;12.13;;;;;;;;;;2568435;23;19999;-93
2023/07/19 02:43:32;;;;;;;15.95;12.48;;;;;;;;;;2575852;23;19989;-92
2023/07/19 02:44:33;;;;;;;17.35;11.15;;;;;;;;;;2563633;23;19993;-92
2023/07/19 02:45:35;;;;;;;19.15;11.73;;;;;;;;;;2533054;23;20001;-91
2023/07/19 02:46:35;;;;;;;17.25;11.45;;;;;;;;;;2545570;23;20017;-93
2023/07/19 02:47:36;;;;;;;16.30;12.50;;;;;;;;;;2561856;23;19993;-91
2023/07/19 02:48:36;;;;;;;15.50;12.32;;;;;;;;;;2558037;23;20000;-91
2023/07/19 02:49:36;;;;;;;16.58;12.35;;;;;;;;;;2563245;23;19989;-92
2023/07/19 02:50:38;;;;;;;16.05;11.88;;;;;;;;;;2573767;23;20067;-92
2023/07/19 02:51:38;;;;;;;16.17;13.48;;;;;;;;;;2556148;23;20000;-92
2023/07/19 02:52:39;;;;;;;16.70;12.48;;;;;;;;;;2560898;23;19993;-92
2023/07/19 02:53:40;;;;;;;14.60;12.43;;;;;;;;;;2570026;23;20047;-92
2023/07/19 02:54:40;;;;;;;15.10;11.75;;;;;;;;;;2557588;23;20382;-92
2023/07/19 02:55:45;;;;;;;14.63;12.70;;;;;;;;;;2545209;23;20013;-93
2023/07/19 02:56:46;;;;;;;13.70;11.88;;;;;;;;;;2557265;23;20025;-92
2023/07/19 02:57:46;;;;;;;15.68;11.55;;;;;;;;;;2568600;23;19989;-92
2023/07/19 02:58:46;;;;;;;15.20;12.82;;;;;;;;;;2573178;23;20003;-92
2023/07/19 02:59:47;;;;;;;18.42;13.00;;;;;;;;;;2573846;23;20071;-92
2023/07/19 03:00:47;;;;;;;15.52;12.25;;;;;;;;;;2568647;23;19996;-92
2023/07/19 03:01:48;;;;;;;18.65;12.50;;;;;;;;;;2556193;23;20068;-92
2023/07/19 03:02:53;;;;;;;15.23;11.63;;;;;;;;;;2560381;23;20012;-92
2023/07/19 03:03:54;;;;;;;17.90;12.27;;;;;;;;;;2560454;23;20028;-95
2023/07/19 03:04:55;;;;;;;15.07;12.45;;;;;;;;;;2543966;23;19997;-92
2023/07/19 03:05:56;;;;;;;15.15;12.82;;;;;;;;;;2560890;23;20051;-92
2023/07/19 03:06:57;;;;;;;17.88;12.93;;;;;;;;;;2556233;23;20368;-91
2023/07/19 03:07:58;;;;;;;14.20;12.68;;;;;;;;;;2560542;23;20024;-93
2023/07/19 03:08:58;;;;;;;16.95;11.85;;;;;;;;;;2556324;23;20034;-93
2023/07/19 03:09:59;;;;;;;14.82;12.00;;;;;;;;;;2544184;23;20078;-94
2023/07/19 03:11:02;;;;;;;16.25;11.90;;;;;;;;;;2560729;23;20347;-93
2023/07/19 03:12:02;;;;;;;14.35;12.52;;;;;;;;;;2556608;23;19997;-93
2023/07/19 03:13:04;;;;;;;16.00;12.00;;;;;;;;;;2544160;23;20373;-92
2023/07/19 03:14:04;;;;;;;13.50;11.50;;;;;;;;;;2544149;23;20530;-93
2023/07/19 03:15:05;;;;;;;16.67;11.63;;;;;;;;;;2556270;23;20127;-92
2023/07/19 03:16:06;;;;;;;17.55;11.60;;;;;;;;;;2556511;23;19997;-93
2023/07/19 03:17:06;;;;;;;16.52;12.15;;;;;;;;;;2560695;23;19993;-92
2023/07/19 03:18:07;;;;;;;16.17;11.85;;;;;;;;;;2574251;23;19989;-90
2023/07/19 03:19:08;;;;;;;15.50;12.05;;;;;;;;;;2556270;23;20036;-93
2023/07/19 03:20:10;;;;;;;14.98;11.88;;;;;;;;;;2544269;23;20068;-93
2023/07/19 03:21:10;;;;;;;14.32;12.20;;;;;;;;;;2544232;23;20021;-93
2023/07/19 03:22:14;;;;;;;14.27;12.43;;;;;;;;;;2544719;23;20002;-92
2023/07/19 03:23:14;;;;;;;20.27;12.32;;;;;;;;;;2556683;23;20063;-94
2023/07/19 03:24:17;;;;;;;16.38;12.90;;;;;;;;;;2556294;23;19992;-93
2023/07/19 03:25:17;;;;;;;17.17;14.02;;;;;;;;;;2560988;23;19997;-93
2023/07/19 03:26:18;;;;;;;16.80;12.55;;;;;;;;;;2556074;23;19997;-93
2023/07/19 03:27:18;;;;;;;15.43;12.70;;;;;;;;;;2556466;23;19997;-93
2023/07/19 03:28:19;;;;;;;14.10;12.23;;;;;;;;;;2544252;23;20002;-93
2023/07/19 03:29:19;;;;;;;18.95;12.68;;;;;;;;;;2560250;23;20013;-92
2023/07/19 03:30:20;;;;;;;14.98;12.05;;;;;;;;;;2568690;23;20000;-92
2023/07/19 03:31:21;;;;;;;16.10;11.82;;;;;;;;;;2572927;23;20092;-93
2023/07/19 03:32:22;;;;;;;17.30;11.90;;;;;;;;;;2556185;23;20120;-93
2023/07/19 03:35:26;;;;;;;12.90;11.30;;;;;;;;;;2569481;23;20024;-91
2023/07/19 03:36:29;;;;;;;14.40;12.27;;;;;;;;;;2573963;23;19988;-92
2023/07/19 03:37:30;;;;;;;13.93;12.00;;;;;;;;;;2573737;23;19992;-92
2023/07/19 03:38:30;;;;;;;16.27;11.63;;;;;;;;;;2556611;23;19996;-92
2023/07/19 03:39:31;;;;;;;15.68;12.13;;;;;;;;;;2543752;23;20001;-92
2023/07/19 03:40:31;;;;;;;16.00;12.20;;;;;;;;;;2544325;23;20440;-93
2023/07/19 03:41:31;;;;;;;14.82;11.48;;;;;;;;;;2560482;23;20019;-92
2023/07/19 03:42:32;;;;;;;17.95;11.82;;;;;;;;;;2556344;23;20335;-92
2023/07/19 03:43:32;;;;;;;14.48;12.43;;;;;;;;;;2556575;23;20013;-94
2023/07/19 03:44:33;;;;;;;17.95;12.35;;;;;;;;;;2556331;23;20024;-93
2023/07/19 03:45:33;;;;;;;15.80;12.20;;;;;;;;;;2556407;23;20015;-92
2023/07/19 03:46:34;;;;;;;17.42;13.38;;;;;;;;;;2544094;23;20085;-91
2023/07/19 03:47:34;;;;;;;17.52;11.88;;;;;;;;;;2556320;23;20501;-94
2023/07/19 03:48:36;;;;;;;16.27;11.77;;;;;;;;;;2573072;23;20056;-93
2023/07/19 03:49:36;;;;;;;16.13;12.25;;;;;;;;;;2556233;23;19993;-93
2023/07/19 03:50:36;;;;;;;16.65;12.30;;;;;;;;;;2560772;23;20058;-93
2023/07/19 03:51:37;;;;;;;17.25;12.15;;;;;;;;;;2556391;23;20542;-93
2023/07/19 03:52:37;;;;;;;14.90;12.00;;;;;;;;;;2544633;23;19998;-93
2023/07/19 03:53:38;;;;;;;18.35;12.15;;;;;;;;;;2544178;23;19997;-93
2023/07/19 03:54:38;;;;;;;16.67;12.60;;;;;;;;;;2556667;23;19989;-93
2023/07/19 03:55:39;;;;;;;14.27;11.38;;;;;;;;;;2544915;23;20052;-93
2023/07/19 03:56:39;;;;;;;14.02;11.82;;;;;;;;;;2557110;23;20079;-93
2023/07/19 03:57:39;;;;;;;20.17;12.25;;;;;;;;;;2574007;23;19992;-93
2023/07/19 03:58:43;;;;;;;16.65;13.13;;;;;;;;;;2574478;23;20011;-93
2023/07/19 03:59:43;;;;;;;13.85;12.30;;;;;;;;;;2557063;23;20470;-93
2023/07/19 04:00:43;;;;;;;17.15;12.57;;;;;;;;;;2557092;23;20009;-92
2023/07/19 04:01:44;;;;;;;19.42;13.02;;;;;;;;;;2561546;23;19997;-92
2023/07/19 04:02:44;;;;;;;15.25;12.30;;;;;;;;;;2574983;23;20445;-93
2023/07/19 04:03:45;;;;;;;15.65;12.00;;;;;;;;;;2557404;23;20024;-94
2023/07/19 04:04:45;;;;;;;17.75;11.93;;;;;;;;;;2559643;23;20009;-93
2023/07/19 04:05:46;;;;;;;21.48;15.48;;;;;;;;;;2575686;23;20028;-92
2023/07/19 04:06:47;;;;;;;22.30;13.45;;;;;;;;;;2557175;23;20212;-93
2023/07/19 04:07:47;;;;;;;15.95;13.82;;;;;;;;;;2544618;23;20005;-92
2023/07/19 04:08:48;;;;;;;16.25;11.80;;;;;;;;;;2557094;23;20023;-91
2023/07/19 04:09:48;;;;;;;15.95;12.15;;;;;;;;;;2574040;23;20080;-92
2023/07/19 04:10:48;;;;;;;17.77;12.45;;;;;;;;;;2557105;23;20052;-91
2023/07/19 04:11:49;;;;;;;15.60;11.93;;;;;;;;;;2561427;23;19992;-92
2023/07/19 04:12:49;;;;;;;17.65;12.85;;;;;;;;;;2557135;23;20143;-91
2023/07/19 04:13:50;;;;;;;18.25;12.55;;;;;;;;;;2556993;23;20434;-93
2023/07/19 04:14:51;;;;;;;15.98;12.98;;;;;;;;;;2557127;23;20004;-92
2023/07/19 04:15:52;;;;;;;20.48;14.25;;;;;;;;;;2561139;23;19997;-92
2023/07/19 04:16:52;;;;;;;15.45;12.10;;;;;;;;;;2556962;23;20484;-92
2023/07/19 04:17:53;;;;;;;19.13;12.60;;;;;;;;;;2561571;23;20464;-92
2023/07/19 04:18:53;;;;;;;17.30;12.82;;;;;;;;;;2558137;23;19996;-94
2023/07/19 04:19:54;;;;;;;14.57;11.77;;;;;;;;;;2546513;23;19993;-93
2023/07/19 04:20:58;;;;;;;14.35;11.75;;;;;;;;;;2547398;23;20002;-93
2023/07/19 04:21:59;;;;;;;17.00;12.10;;;;;;;;;;2558972;23;20432;-92
2023/07/19 04:22:59;;;;;;;20.58;13.05;;;;;;;;;;2558454;23;19993;-93
2023/07/19 04:24:00;;;;;;;16.35;11.65;;;;;;;;;;2557213;23;20454;-93
2023/07/19 04:25:01;;;;;;;14.68;11.90;;;;;;;;;;2544854;23;20001;-93
2023/07/19 04:26:01;;;;;;;18.00;11.63;;;;;;;;;;2557245;23;20406;-93
2023/07/19 04:27:02;;;;;;;17.55;12.18;;;;;;;;;;2556998;23;20007;-92
2023/07/19 04:28:02;;;;;;;15.55;11.85;;;;;;;;;;2556932;23;20012;-92
2023/07/19 04:29:03;;;;;;;18.08;11.75;;;;;;;;;;2557139;23;20000;-93
2023/07/19 04:30:06;;;;;;;24.52;13.00;;;;;;;;;;2569406;23;20468;-93
2023/07/19 04:31:07;;;;;;;15.60;13.55;;;;;;;;;;2556847;23;20004;-92
2023/07/19 04:32:07;;;;;;;18.20;13.45;;;;;;;;;;2558216;23;20065;-92
2023/07/19 04:33:08;;;;;;;18.13;13.18;;;;;;;;;;2557103;23;20001;-92
2023/07/19 04:34:10;;;;;;;17.08;11.75;;;;;;;;;;2560961;23;20020;-91
2023/07/19 04:35:13;;;;;;;18.08;12.95;;;;;;;;;;2569274;23;20004;-93
2023/07/19 04:36:18;;;;;;;16.88;12.95;;;;;;;;;;2573535;23;19993;-92
2023/07/19 04:37:21;;;;;;;19.90;13.43;;;;;;;;;;2574592;23;20004;-93
2023/07/19 04:38:22;;;;;;;15.27;12.80;;;;;;;;;;2557021;23;20036;-93
2023/07/19 04:39:22;;;;;;;15.98;13.02;;;;;;;;;;2557004;23;20390;-92
2023/07/19 04:40:26;;;;;;;19.15;13.27;;;;;;;;;;2557055;23;20119;-92
2023/07/19 04:41:31;;;;;;;18.30;13.10;;;;;;;;;;2557075;23;20098;-92
2023/07/19 04:42:31;;;;;;;18.77;13.10;;;;;;;;;;2558240;23;19989;-92
2023/07/19 04:43:34;;;;;;;17.42;12.82;;;;;;;;;;2573714;23;20446;-92
2023/07/19 04:44:35;;;;;;;14.93;11.50;;;;;;;;;;2574182;23;19999;-92
2023/07/19 04:45:35;;;;;;;19.50;12.68;;;;;;;;;;2556964;23;19993;-92
2023/07/19 04:46:36;;;;;;;20.35;12.75;;;;;;;;;;2557015;23;19992;-93
2023/07/19 04:47:39;;;;;;;16.48;10.88;;;;;;;;;;2573418;23;20094;-93
2023/07/19 04:48:41;;;;;;;14.95;10.85;;;;;;;;;;2560145;23;19997;-94
2023/07/19 04:49:42;;;;;;;15.18;11.45;;;;;;;;;;2559180;23;20051;-93
2023/07/19 04:50:42;;;;;;;14.07;10.68;;;;;;;;;;2573670;23;20024;-93
2023/07/19 04:51:43;;;;;;;13.85;11.73;;;;;;;;;;2556861;23;20024;-94
2023/07/19 04:52:46;;;;;;;15.98;10.85;;;;;;;;;;2561412;23;19997;-92
2023/07/19 04:53:49;;;;;;;16.05;11.02;;;;;;;;;;2558768;23;20004;-94
2023/07/19 04:54:50;;;;;;;17.42;11.50;;;;;;;;;;2557606;23;20000;-94
2023/07/19 04:55:51;;;;;;;11.82;10.07;;;;;;;;;;2569359;23;20014;-94
2023/07/19 04:56:53;;;;;;;13.43;11.35;;;;;;;;;;2573984;23;20393;-94
2023/07/19 04:57:55;;;;;;;17.00;10.73;;;;;;;;;;2557144;23;20044;-94
2023/07/19 04:58:56;;;;;;;14.93;8.73;;;;;;;;;;2561620;23;19993;-94
2023/07/19 04:59:57;;;;;;;11.60;9.40;;;;;;;;;;2571773;23;20001;-93
2023/07/19 05:01:09;;;;;;;10.73;9.63;;;;;;;;;;2556888;23;20383;-93
2023/07/19 05:02:09;;;;;;;13.70;9.48;;;;;;;;;;2559090;23;20006;-94
2023/07/19 05:03:10;;;;;;;13.40;9.77;;;;;;;;;;2556863;23;20456;-95
2023/07/19 05:04:12;;;;;;;13.85;9.77;;;;;;;;;;2556988;23;20135;-94
2023/07/19 05:05:14;;;;;;;11.57;9.40;;;;;;;;;;2561246;23;19997;-92
2023/07/19 05:06:14;;;;;;;11.32;8.90;;;;;;;;;;2556928;23;19997;-92
2023/07/19 05:07:16;;;;;;;12.93;9.60;;;;;;;;;;2560955;23;20116;-93
2023/07/19 05:08:17;;;;;;;12.95;8.32;;;;;;;;;;2556519;23;20005;-92
2023/07/19 05:09:17;;;;;;;9.65;8.18;;;;;;;;;;2558827;23;20579;-93
2023/07/19 05:10:18;;;;;;;11.75;8.70;;;;;;;;;;2574330;23;20031;-92
2023/07/19 05:11:19;;;;;;;13.05;8.40;;;;;;;;;;2556614;23;20004;-92
2023/07/19 05:12:20;;;;;;;9.45;7.65;;;;;;;;;;2544788;23;20513;-93
2023/07/19 05:13:20;;;;;;;9.77;7.00;;;;;;;;;;2111487;23;10218555;-92
2023/07/19 05:14:20;;;;;;;12.80;8.50;;;;;;;;;;2545675;23;19999;-94
2023/07/19 05:15:21;;;;;;;9.32;7.45;;;;;;;;;;2544913;23;20064;-93
2023/07/19 05:16:21;;;;;;;10.82;7.78;;;;;;;;;;2560965;23;19993;-93
2023/07/19 05:17:22;;;;;;;11.57;7.88;;;;;;;;;;2574297;23;20123;-94
2023/07/19 05:18:22;;;;;;;9.75;7.75;;;;;;;;;;2556757;23;20160;-93
2023/07/19 05:19:23;;;;;;;11.20;7.68;;;;;;;;;;2556609;23;20035;-93
2023/07/19 05:20:24;;;;;;;11.50;7.93;;;;;;;;;;2556874;23;19997;-93
2023/07/19 05:21:24;;;;;;;8.43;7.22;;;;;;;;;;2556763;23;19996;-94
2023/07/19 05:22:25;;;;;;;10.52;7.95;;;;;;;;;;2544353;23;20003;-94
2023/07/19 05:23:25;;;;;;;9.90;7.13;;;;;;;;;;2556801;23;20047;-94
2023/07/19 05:24:26;;;;;;;9.20;6.70;;;;;;;;;;2556602;23;20088;-96
2023/07/19 05:25:26;;;;;;;10.15;8.07;;;;;;;;;;2556693;23;20090;-93
2023/07/19 05:26:27;;;;;;;10.98;6.97;;;;;;;;;;2556818;23;20020;-94
2023/07/19 05:27:29;;;;;;;10.52;7.13;;;;;;;;;;2556474;23;20012;-93
2023/07/19 05:28:30;;;;;;;13.68;7.50;;;;;;;;;;2556765;23;19993;-93
2023/07/19 05:29:30;;;;;;;8.30;6.57;;;;;;;;;;2560844;23;19989;-94
2023/07/19 05:30:31;;;;;;;9.48;6.50;;;;;;;;;;2556610;23;20475;-93
2023/07/19 05:31:31;;;;;;;9.40;7.03;;;;;;;;;;2560717;23;20072;-94
2023/07/19 05:32:32;;;;;;;9.00;6.82;;;;;;;;;;2574244;23;19988;-94
2023/07/19 05:33:32;;;;;;;8.55;6.47;;;;;;;;;;2574160;23;20426;-94
2023/07/19 05:34:33;;;;;;;7.63;6.35;;;;;;;;;;2573952;23;20425;-94
2023/07/19 05:35:33;;;;;;;9.27;6.13;;;;;;;;;;2574428;23;20093;-96
2023/07/19 05:36:34;;;;;;;7.50;6.07;;;;;;;;;;2574409;23;20019;-93
2023/07/19 05:37:35;;;;;;;8.32;6.30;;;;;;;;;;2574247;23;20116;-93
2023/07/19 05:38:35;;;;;;;8.15;6.03;;;;;;;;;;2574097;23;19994;-93
2023/07/19 05:39:36;;;;;;;7.32;6.30;;;;;;;;;;2556847;23;19993;-94
2023/07/19 05:40:36;;;;;;;6.80;5.93;;;;;;;;;;2544384;23;20444;-92
2023/07/19 05:41:36;;;;;;;7.35;6.05;;;;;;;;;;2544691;23;20035;-95
2023/07/19 05:42:37;;;;;;;7.20;6.10;;;;;;;;;;2556711;23;19993;-94
2023/07/19 05:43:37;;;;;;;6.68;5.90;;;;;;;;;;2556849;23;20108;-94
2023/07/19 05:44:38;;;;;;;9.13;6.07;;;;;;;;;;2544868;23;20104;-90
2023/07/19 05:45:38;;;;;;;6.65;5.45;;;;;;;;;;2128844;23;10117478;-93
2023/07/19 05:46:39;;;;;;;7.70;5.68;;;;;;;;;;2574239;23;19992;-93
2023/07/19 05:47:39;;;;;;;11.13;5.90;;;;;;;;;;2574084;23;20068;-94
2023/07/19 05:48:43;;;;;;;6.65;5.82;;;;;;;;;;2574005;23;20099;-93
2023/07/19 05:49:44;;;;;;;6.10;5.50;;;;;;;;;;2556656;23;20408;-92
2023/07/19 05:50:47;;;;;;;9.65;5.63;;;;;;;;;;2560924;23;20397;-94
2023/07/19 05:51:47;;;;;;;6.10;5.53;;;;;;;;;;2573948;23;20027;-93
2023/07/19 05:52:48;;;;;;;9.07;6.32;;;;;;;;;;2573948;23;20092;-93
2023/07/19 05:53:48;;;;;;;11.07;6.78;;;;;;;;;;2556266;23;20005;-92
2023/07/19 05:54:49;;;;;;;8.70;6.32;;;;;;;;;;2560908;23;20064;-94
2023/07/19 05:55:51;;;;;;;7.40;6.15;;;;;;;;;;2573898;23;20499;-93
2023/07/19 05:56:51;;;;;;;7.93;5.68;;;;;;;;;;2556518;23;20486;-94
2023/07/19 05:57:52;;;;;;;6.97;5.20;;;;;;;;;;2560701;23;19989;-93
2023/07/19 05:58:54;;;;;;;6.65;5.30;;;;;;;;;;2556537;23;20051;-93
2023/07/19 05:59:54;;;;;;;5.78;4.72;;;;;;;;;;2544761;23;20063;-92
2023/07/19 06:00:55;;;;;;;7.00;4.75;;;;;;;;;;2561662;23;20076;-94
2023/07/19 06:02:00;;;;;;;6.93;4.82;;;;;;;;;;2557027;23;20075;-94